sensor_id;sensor_type;location;lat;lon;timestamp;P1;durP1;ratioP1;P2;durP2;ratioP2
25049;SDS011;13046;49.814;9.918;2023-03-07T00:00:39;28.67;;;18.58;;
25049;SDS011;13046;49.814;9.918;2023-03-07T00:03:05;38.83;;;21.63;;
25049;SDS011;13046;49.814;9.918;2023-03-07T00:05:31;32.70;;;20.38;;
25049;SDS011;13046;49.814;9.918;2023-03-07T00:07:57;31.77;;;19.40;;
25049;SDS011;13046;49.814;9.918;2023-03-07T00:10:24;26.70;;;16.77;;
25049;SDS011;13046;49.814;9.918;2023-03-07T00:12:50;32.67;;;20.27;;
25049;SDS011;13046;49.814;9.918;2023-03-07T00:15:16;33.13;;;19.13;;
25049;SDS011;13046;49.814;9.918;2023-03-07T00:17:42;30.65;;;18.83;;
25049;SDS011;13046;49.814;9.918;2023-03-07T00:20:08;28.35;;;18.77;;
25049;SDS011;13046;49.814;9.918;2023-03-07T00:22:41;32.10;;;18.85;;
25049;SDS011;13046;49.814;9.918;2023-03-07T00:25:08;33.58;;;19.15;;
25049;SDS011;13046;49.814;9.918;2023-03-07T00:27:34;30.85;;;18.88;;
25049;SDS011;13046;49.814;9.918;2023-03-07T00:30:01;35.03;;;20.08;;
25049;SDS011;13046;49.814;9.918;2023-03-07T00:32:28;30.38;;;18.02;;
25049;SDS011;13046;49.814;9.918;2023-03-07T00:34:55;31.52;;;18.15;;
25049;SDS011;13046;49.814;9.918;2023-03-07T00:37:22;31.35;;;18.17;;
25049;SDS011;13046;49.814;9.918;2023-03-07T00:39:47;26.90;;;18.00;;
25049;SDS011;13046;49.814;9.918;2023-03-07T00:42:13;32.42;;;18.73;;
25049;SDS011;13046;49.814;9.918;2023-03-07T00:44:39;31.95;;;18.45;;
25049;SDS011;13046;49.814;9.918;2023-03-07T00:47:05;32.65;;;19.98;;
25049;SDS011;13046;49.814;9.918;2023-03-07T00:49:31;31.02;;;19.30;;
25049;SDS011;13046;49.814;9.918;2023-03-07T00:51:57;31.42;;;18.50;;
25049;SDS011;13046;49.814;9.918;2023-03-07T00:54:23;33.92;;;19.70;;
25049;SDS011;13046;49.814;9.918;2023-03-07T00:56:49;32.97;;;19.75;;
25049;SDS011;13046;49.814;9.918;2023-03-07T00:59:15;33.22;;;19.35;;
25049;SDS011;13046;49.814;9.918;2023-03-07T01:01:41;33.30;;;19.23;;
25049;SDS011;13046;49.814;9.918;2023-03-07T01:04:06;30.23;;;18.80;;
25049;SDS011;13046;49.814;9.918;2023-03-07T01:06:32;33.15;;;19.13;;
25049;SDS011;13046;49.814;9.918;2023-03-07T01:08:59;33.00;;;20.48;;
25049;SDS011;13046;49.814;9.918;2023-03-07T01:11:30;38.05;;;21.88;;
25049;SDS011;13046;49.814;9.918;2023-03-07T01:13:56;33.90;;;20.80;;
25049;SDS011;13046;49.814;9.918;2023-03-07T01:16:33;33.40;;;19.90;;
25049;SDS011;13046;49.814;9.918;2023-03-07T01:19:04;30.50;;;19.95;;
25049;SDS011;13046;49.814;9.918;2023-03-07T01:21:35;34.35;;;19.98;;
25049;SDS011;13046;49.814;9.918;2023-03-07T01:24:03;35.10;;;21.10;;
25049;SDS011;13046;49.814;9.918;2023-03-07T01:26:30;33.47;;;20.25;;
25049;SDS011;13046;49.814;9.918;2023-03-07T01:28:58;36.10;;;19.60;;
25049;SDS011;13046;49.814;9.918;2023-03-07T01:31:26;33.28;;;19.38;;
25049;SDS011;13046;49.814;9.918;2023-03-07T01:33:54;33.75;;;20.73;;
25049;SDS011;13046;49.814;9.918;2023-03-07T01:36:21;35.65;;;20.15;;
25049;SDS011;13046;49.814;9.918;2023-03-07T01:39:05;33.28;;;20.48;;
25049;SDS011;13046;49.814;9.918;2023-03-07T01:41:45;34.25;;;19.67;;
25049;SDS011;13046;49.814;9.918;2023-03-07T01:44:13;34.53;;;20.63;;
25049;SDS011;13046;49.814;9.918;2023-03-07T01:46:43;39.78;;;22.15;;
25049;SDS011;13046;49.814;9.918;2023-03-07T01:49:13;43.85;;;22.60;;
25049;SDS011;13046;49.814;9.918;2023-03-07T01:51:50;33.92;;;21.40;;
25049;SDS011;13046;49.814;9.918;2023-03-07T01:54:27;36.67;;;21.58;;
25049;SDS011;13046;49.814;9.918;2023-03-07T01:56:56;38.08;;;22.92;;
25049;SDS011;13046;49.814;9.918;2023-03-07T01:59:24;38.03;;;23.38;;
25049;SDS011;13046;49.814;9.918;2023-03-07T02:01:55;42.97;;;23.07;;
25049;SDS011;13046;49.814;9.918;2023-03-07T02:04:26;42.45;;;21.98;;
25049;SDS011;13046;49.814;9.918;2023-03-07T02:06:56;38.15;;;21.85;;
25049;SDS011;13046;49.814;9.918;2023-03-07T02:09:24;43.70;;;24.70;;
25049;SDS011;13046;49.814;9.918;2023-03-07T02:11:52;40.30;;;22.42;;
25049;SDS011;13046;49.814;9.918;2023-03-07T02:14:18;39.88;;;23.00;;
25049;SDS011;13046;49.814;9.918;2023-03-07T02:16:43;41.15;;;22.38;;
25049;SDS011;13046;49.814;9.918;2023-03-07T02:19:13;41.97;;;24.50;;
25049;SDS011;13046;49.814;9.918;2023-03-07T02:22:11;36.78;;;22.10;;
25049;SDS011;13046;49.814;9.918;2023-03-07T02:24:58;39.17;;;23.23;;
25049;SDS011;13046;49.814;9.918;2023-03-07T02:27:35;40.38;;;24.52;;
25049;SDS011;13046;49.814;9.918;2023-03-07T02:30:03;36.50;;;21.20;;
25049;SDS011;13046;49.814;9.918;2023-03-07T02:32:30;42.08;;;24.05;;
25049;SDS011;13046;49.814;9.918;2023-03-07T02:34:56;40.97;;;23.33;;
25049;SDS011;13046;49.814;9.918;2023-03-07T02:37:26;38.88;;;21.77;;
25049;SDS011;13046;49.814;9.918;2023-03-07T02:40:00;41.78;;;23.88;;
25049;SDS011;13046;49.814;9.918;2023-03-07T02:42:31;42.45;;;23.48;;
25049;SDS011;13046;49.814;9.918;2023-03-07T02:45:05;38.25;;;21.98;;
25049;SDS011;13046;49.814;9.918;2023-03-07T02:47:35;36.50;;;23.05;;
25049;SDS011;13046;49.814;9.918;2023-03-07T02:50:02;39.70;;;22.20;;
25049;SDS011;13046;49.814;9.918;2023-03-07T02:52:28;41.25;;;23.05;;
25049;SDS011;13046;49.814;9.918;2023-03-07T02:54:55;42.25;;;23.58;;
25049;SDS011;13046;49.814;9.918;2023-03-07T02:57:22;35.13;;;22.38;;
25049;SDS011;13046;49.814;9.918;2023-03-07T02:59:48;37.75;;;23.17;;
25049;SDS011;13046;49.814;9.918;2023-03-07T03:02:14;43.13;;;24.63;;
25049;SDS011;13046;49.814;9.918;2023-03-07T03:04:40;37.30;;;22.75;;
25049;SDS011;13046;49.814;9.918;2023-03-07T03:07:05;43.83;;;25.30;;
25049;SDS011;13046;49.814;9.918;2023-03-07T03:09:31;39.72;;;21.98;;
25049;SDS011;13046;49.814;9.918;2023-03-07T03:11:57;38.78;;;23.80;;
25049;SDS011;13046;49.814;9.918;2023-03-07T03:14:26;38.22;;;22.90;;
25049;SDS011;13046;49.814;9.918;2023-03-07T03:16:52;38.60;;;24.75;;
25049;SDS011;13046;49.814;9.918;2023-03-07T03:19:17;41.22;;;23.52;;
25049;SDS011;13046;49.814;9.918;2023-03-07T03:21:43;37.50;;;23.42;;
25049;SDS011;13046;49.814;9.918;2023-03-07T03:24:09;40.53;;;21.15;;
25049;SDS011;13046;49.814;9.918;2023-03-07T03:26:36;35.38;;;20.77;;
25049;SDS011;13046;49.814;9.918;2023-03-07T03:29:03;41.50;;;22.85;;
25049;SDS011;13046;49.814;9.918;2023-03-07T03:31:30;37.60;;;22.35;;
25049;SDS011;13046;49.814;9.918;2023-03-07T03:33:57;39.08;;;21.70;;
25049;SDS011;13046;49.814;9.918;2023-03-07T03:36:25;39.25;;;22.20;;
25049;SDS011;13046;49.814;9.918;2023-03-07T03:38:55;34.80;;;21.08;;
25049;SDS011;13046;49.814;9.918;2023-03-07T03:41:22;40.15;;;21.60;;
25049;SDS011;13046;49.814;9.918;2023-03-07T03:43:48;36.60;;;22.70;;
25049;SDS011;13046;49.814;9.918;2023-03-07T03:46:14;43.97;;;25.45;;
25049;SDS011;13046;49.814;9.918;2023-03-07T03:48:43;36.08;;;21.98;;
25049;SDS011;13046;49.814;9.918;2023-03-07T03:51:10;33.38;;;21.25;;
25049;SDS011;13046;49.814;9.918;2023-03-07T03:53:38;35.65;;;21.50;;
25049;SDS011;13046;49.814;9.918;2023-03-07T03:56:11;35.85;;;21.27;;
25049;SDS011;13046;49.814;9.918;2023-03-07T03:58:40;33.50;;;20.23;;
25049;SDS011;13046;49.814;9.918;2023-03-07T04:01:08;34.70;;;20.95;;
25049;SDS011;13046;49.814;9.918;2023-03-07T04:03:37;36.75;;;20.58;;
25049;SDS011;13046;49.814;9.918;2023-03-07T04:06:27;38.00;;;22.40;;
25049;SDS011;13046;49.814;9.918;2023-03-07T04:08:55;34.28;;;20.90;;
25049;SDS011;13046;49.814;9.918;2023-03-07T04:11:22;34.58;;;21.42;;
25049;SDS011;13046;49.814;9.918;2023-03-07T04:13:49;36.20;;;21.60;;
25049;SDS011;13046;49.814;9.918;2023-03-07T04:16:15;30.38;;;20.70;;
25049;SDS011;13046;49.814;9.918;2023-03-07T04:18:41;34.38;;;21.35;;
25049;SDS011;13046;49.814;9.918;2023-03-07T04:21:07;33.97;;;20.55;;
25049;SDS011;13046;49.814;9.918;2023-03-07T04:23:36;28.98;;;19.40;;
25049;SDS011;13046;49.814;9.918;2023-03-07T04:26:02;27.60;;;18.85;;
25049;SDS011;13046;49.814;9.918;2023-03-07T04:28:31;36.38;;;20.52;;
25049;SDS011;13046;49.814;9.918;2023-03-07T04:31:27;30.70;;;18.73;;
25049;SDS011;13046;49.814;9.918;2023-03-07T04:33:56;29.55;;;19.35;;
25049;SDS011;13046;49.814;9.918;2023-03-07T04:36:23;30.63;;;19.63;;
25049;SDS011;13046;49.814;9.918;2023-03-07T04:38:49;28.88;;;18.08;;
25049;SDS011;13046;49.814;9.918;2023-03-07T04:41:17;32.53;;;20.90;;
25049;SDS011;13046;49.814;9.918;2023-03-07T04:43:46;27.40;;;18.52;;
25049;SDS011;13046;49.814;9.918;2023-03-07T04:46:13;31.15;;;19.90;;
25049;SDS011;13046;49.814;9.918;2023-03-07T04:48:39;29.95;;;21.38;;
25049;SDS011;13046;49.814;9.918;2023-03-07T04:51:05;44.50;;;32.22;;
25049;SDS011;13046;49.814;9.918;2023-03-07T04:53:31;46.90;;;37.55;;
25049;SDS011;13046;49.814;9.918;2023-03-07T04:55:57;38.03;;;27.27;;
25049;SDS011;13046;49.814;9.918;2023-03-07T04:58:24;31.10;;;21.42;;
25049;SDS011;13046;49.814;9.918;2023-03-07T05:00:50;24.08;;;17.20;;
25049;SDS011;13046;49.814;9.918;2023-03-07T05:03:16;41.10;;;25.85;;
25049;SDS011;13046;49.814;9.918;2023-03-07T05:05:41;29.40;;;19.77;;
25049;SDS011;13046;49.814;9.918;2023-03-07T05:08:07;26.77;;;18.38;;
25049;SDS011;13046;49.814;9.918;2023-03-07T05:10:33;24.95;;;16.88;;
25049;SDS011;13046;49.814;9.918;2023-03-07T05:13:02;29.48;;;19.05;;
25049;SDS011;13046;49.814;9.918;2023-03-07T05:15:28;25.23;;;17.40;;
25049;SDS011;13046;49.814;9.918;2023-03-07T05:17:54;28.20;;;18.55;;
25049;SDS011;13046;49.814;9.918;2023-03-07T05:20:20;27.80;;;17.95;;
25049;SDS011;13046;49.814;9.918;2023-03-07T05:22:48;29.45;;;19.40;;
25049;SDS011;13046;49.814;9.918;2023-03-07T05:25:14;29.10;;;19.77;;
25049;SDS011;13046;49.814;9.918;2023-03-07T05:27:41;33.03;;;21.00;;
25049;SDS011;13046;49.814;9.918;2023-03-07T05:30:08;29.05;;;19.10;;
25049;SDS011;13046;49.814;9.918;2023-03-07T05:32:34;29.83;;;19.58;;
25049;SDS011;13046;49.814;9.918;2023-03-07T05:35:01;32.08;;;21.63;;
25049;SDS011;13046;49.814;9.918;2023-03-07T05:37:28;29.90;;;18.88;;
25049;SDS011;13046;49.814;9.918;2023-03-07T05:39:54;31.35;;;20.92;;
25049;SDS011;13046;49.814;9.918;2023-03-07T05:42:20;32.55;;;22.45;;
25049;SDS011;13046;49.814;9.918;2023-03-07T05:44:47;31.27;;;21.58;;
25049;SDS011;13046;49.814;9.918;2023-03-07T05:47:14;36.45;;;22.70;;
25049;SDS011;13046;49.814;9.918;2023-03-07T05:49:40;34.92;;;22.73;;
25049;SDS011;13046;49.814;9.918;2023-03-07T05:52:07;36.45;;;22.23;;
25049;SDS011;13046;49.814;9.918;2023-03-07T05:54:33;35.55;;;23.95;;
25049;SDS011;13046;49.814;9.918;2023-03-07T05:56:59;54.33;;;34.47;;
25049;SDS011;13046;49.814;9.918;2023-03-07T05:59:24;44.90;;;29.42;;
25049;SDS011;13046;49.814;9.918;2023-03-07T06:01:50;35.33;;;24.08;;
25049;SDS011;13046;49.814;9.918;2023-03-07T06:04:17;42.80;;;27.13;;
25049;SDS011;13046;49.814;9.918;2023-03-07T06:06:43;36.08;;;23.08;;
25049;SDS011;13046;49.814;9.918;2023-03-07T06:09:09;37.70;;;26.33;;
25049;SDS011;13046;49.814;9.918;2023-03-07T06:11:36;41.92;;;25.90;;
25049;SDS011;13046;49.814;9.918;2023-03-07T06:14:02;38.50;;;24.65;;
25049;SDS011;13046;49.814;9.918;2023-03-07T06:16:28;36.70;;;24.02;;
25049;SDS011;13046;49.814;9.918;2023-03-07T06:18:55;36.63;;;24.58;;
25049;SDS011;13046;49.814;9.918;2023-03-07T06:21:21;42.42;;;24.25;;
25049;SDS011;13046;49.814;9.918;2023-03-07T06:23:47;41.45;;;25.67;;
25049;SDS011;13046;49.814;9.918;2023-03-07T06:26:17;41.17;;;25.10;;
25049;SDS011;13046;49.814;9.918;2023-03-07T06:28:46;46.33;;;27.25;;
25049;SDS011;13046;49.814;9.918;2023-03-07T06:31:15;45.10;;;27.42;;
25049;SDS011;13046;49.814;9.918;2023-03-07T06:33:42;40.33;;;25.88;;
25049;SDS011;13046;49.814;9.918;2023-03-07T06:36:13;40.13;;;23.95;;
25049;SDS011;13046;49.814;9.918;2023-03-07T06:38:41;51.08;;;27.25;;
25049;SDS011;13046;49.814;9.918;2023-03-07T06:41:07;42.08;;;25.17;;
25049;SDS011;13046;49.814;9.918;2023-03-07T06:43:33;36.22;;;23.15;;
25049;SDS011;13046;49.814;9.918;2023-03-07T06:45:59;43.00;;;26.90;;
25049;SDS011;13046;49.814;9.918;2023-03-07T06:48:30;42.75;;;26.73;;
25049;SDS011;13046;49.814;9.918;2023-03-07T06:50:58;40.15;;;24.50;;
25049;SDS011;13046;49.814;9.918;2023-03-07T06:53:24;45.97;;;27.98;;
25049;SDS011;13046;49.814;9.918;2023-03-07T06:55:50;45.67;;;27.15;;
25049;SDS011;13046;49.814;9.918;2023-03-07T06:58:16;41.10;;;24.63;;
25049;SDS011;13046;49.814;9.918;2023-03-07T07:00:42;37.13;;;23.05;;
25049;SDS011;13046;49.814;9.918;2023-03-07T07:03:12;40.92;;;24.45;;
25049;SDS011;13046;49.814;9.918;2023-03-07T07:05:38;40.58;;;25.08;;
25049;SDS011;13046;49.814;9.918;2023-03-07T07:08:04;42.03;;;23.73;;
25049;SDS011;13046;49.814;9.918;2023-03-07T07:10:30;37.15;;;21.95;;
25049;SDS011;13046;49.814;9.918;2023-03-07T07:12:56;36.05;;;22.60;;
25049;SDS011;13046;49.814;9.918;2023-03-07T07:15:23;37.58;;;25.08;;
25049;SDS011;13046;49.814;9.918;2023-03-07T07:17:49;36.78;;;23.10;;
25049;SDS011;13046;49.814;9.918;2023-03-07T07:20:16;38.00;;;22.88;;
25049;SDS011;13046;49.814;9.918;2023-03-07T07:22:43;35.97;;;22.23;;
25049;SDS011;13046;49.814;9.918;2023-03-07T07:25:08;35.13;;;20.98;;
25049;SDS011;13046;49.814;9.918;2023-03-07T07:27:34;32.35;;;20.58;;
25049;SDS011;13046;49.814;9.918;2023-03-07T07:30:02;37.45;;;23.13;;
25049;SDS011;13046;49.814;9.918;2023-03-07T07:32:29;33.50;;;20.48;;
25049;SDS011;13046;49.814;9.918;2023-03-07T07:34:55;32.50;;;20.42;;
25049;SDS011;13046;49.814;9.918;2023-03-07T07:37:20;34.60;;;20.45;;
25049;SDS011;13046;49.814;9.918;2023-03-07T07:39:50;35.28;;;21.77;;
25049;SDS011;13046;49.814;9.918;2023-03-07T07:42:16;31.88;;;18.85;;
25049;SDS011;13046;49.814;9.918;2023-03-07T07:44:57;30.20;;;19.08;;
25049;SDS011;13046;49.814;9.918;2023-03-07T07:47:23;34.45;;;22.05;;
25049;SDS011;13046;49.814;9.918;2023-03-07T07:49:49;32.50;;;20.23;;
25049;SDS011;13046;49.814;9.918;2023-03-07T07:52:15;32.53;;;19.83;;
25049;SDS011;13046;49.814;9.918;2023-03-07T07:54:42;27.95;;;19.33;;
25049;SDS011;13046;49.814;9.918;2023-03-07T07:57:08;29.02;;;18.48;;
25049;SDS011;13046;49.814;9.918;2023-03-07T07:59:34;27.65;;;17.58;;
25049;SDS011;13046;49.814;9.918;2023-03-07T08:02:00;29.33;;;18.58;;
25049;SDS011;13046;49.814;9.918;2023-03-07T08:04:26;30.23;;;18.95;;
25049;SDS011;13046;49.814;9.918;2023-03-07T08:06:53;29.23;;;18.90;;
25049;SDS011;13046;49.814;9.918;2023-03-07T08:09:18;26.80;;;17.75;;
25049;SDS011;13046;49.814;9.918;2023-03-07T08:11:44;27.27;;;17.80;;
25049;SDS011;13046;49.814;9.918;2023-03-07T08:14:10;29.27;;;17.83;;
25049;SDS011;13046;49.814;9.918;2023-03-07T08:16:36;28.35;;;16.90;;
25049;SDS011;13046;49.814;9.918;2023-03-07T08:19:02;25.20;;;16.90;;
25049;SDS011;13046;49.814;9.918;2023-03-07T08:21:28;28.80;;;16.65;;
25049;SDS011;13046;49.814;9.918;2023-03-07T08:23:53;25.38;;;16.13;;
25049;SDS011;13046;49.814;9.918;2023-03-07T08:26:20;23.77;;;15.15;;
25049;SDS011;13046;49.814;9.918;2023-03-07T08:28:45;26.20;;;17.02;;
25049;SDS011;13046;49.814;9.918;2023-03-07T08:33:39;24.33;;;14.88;;
25049;SDS011;13046;49.814;9.918;2023-03-07T08:36:06;24.13;;;16.45;;
25049;SDS011;13046;49.814;9.918;2023-03-07T08:38:32;26.33;;;17.13;;
25049;SDS011;13046;49.814;9.918;2023-03-07T08:40:59;21.25;;;15.55;;
25049;SDS011;13046;49.814;9.918;2023-03-07T08:43:27;24.92;;;15.35;;
25049;SDS011;13046;49.814;9.918;2023-03-07T08:45:53;23.85;;;16.42;;
25049;SDS011;13046;49.814;9.918;2023-03-07T08:48:19;24.65;;;16.63;;
25049;SDS011;13046;49.814;9.918;2023-03-07T08:50:44;24.05;;;14.95;;
25049;SDS011;13046;49.814;9.918;2023-03-07T08:53:12;24.33;;;16.05;;
25049;SDS011;13046;49.814;9.918;2023-03-07T08:55:38;24.38;;;16.17;;
25049;SDS011;13046;49.814;9.918;2023-03-07T08:58:04;25.90;;;16.73;;
25049;SDS011;13046;49.814;9.918;2023-03-07T09:00:29;24.40;;;16.48;;
25049;SDS011;13046;49.814;9.918;2023-03-07T09:02:55;24.08;;;15.85;;
25049;SDS011;13046;49.814;9.918;2023-03-07T09:05:22;21.90;;;15.32;;
25049;SDS011;13046;49.814;9.918;2023-03-07T09:07:48;24.02;;;14.85;;
25049;SDS011;13046;49.814;9.918;2023-03-07T09:10:14;26.08;;;16.98;;
25049;SDS011;13046;49.814;9.918;2023-03-07T09:12:41;21.52;;;14.18;;
25049;SDS011;13046;49.814;9.918;2023-03-07T09:15:07;22.08;;;14.65;;
25049;SDS011;13046;49.814;9.918;2023-03-07T09:17:33;22.33;;;15.00;;
25049;SDS011;13046;49.814;9.918;2023-03-07T09:19:59;22.98;;;14.50;;
25049;SDS011;13046;49.814;9.918;2023-03-07T09:22:25;22.58;;;16.05;;
25049;SDS011;13046;49.814;9.918;2023-03-07T09:24:52;21.67;;;14.80;;
25049;SDS011;13046;49.814;9.918;2023-03-07T09:27:17;25.52;;;15.00;;
25049;SDS011;13046;49.814;9.918;2023-03-07T09:29:43;23.98;;;14.38;;
25049;SDS011;13046;49.814;9.918;2023-03-07T09:32:09;21.45;;;14.68;;
25049;SDS011;13046;49.814;9.918;2023-03-07T09:34:35;15.85;;;12.40;;
25049;SDS011;13046;49.814;9.918;2023-03-07T09:37:00;17.00;;;14.15;;
25049;SDS011;13046;49.814;9.918;2023-03-07T09:39:26;21.50;;;15.40;;
25049;SDS011;13046;49.814;9.918;2023-03-07T09:42:02;17.63;;;12.93;;
25049;SDS011;13046;49.814;9.918;2023-03-07T09:50:01;21.20;;;14.73;;
25049;SDS011;13046;49.814;9.918;2023-03-07T09:52:33;21.45;;;12.88;;
25049;SDS011;13046;49.814;9.918;2023-03-07T09:55:05;18.77;;;12.00;;
25049;SDS011;13046;49.814;9.918;2023-03-07T09:57:45;19.77;;;11.43;;
25049;SDS011;13046;49.814;9.918;2023-03-07T10:00:25;15.98;;;10.80;;
25049;SDS011;13046;49.814;9.918;2023-03-07T10:03:15;19.38;;;12.75;;
25049;SDS011;13046;49.814;9.918;2023-03-07T10:08:29;24.92;;;12.10;;
25049;SDS011;13046;49.814;9.918;2023-03-07T10:11:06;15.27;;;10.65;;
25049;SDS011;13046;49.814;9.918;2023-03-07T10:19:01;17.20;;;11.35;;
25049;SDS011;13046;49.814;9.918;2023-03-07T10:21:53;12.85;;;9.82;;
25049;SDS011;13046;49.814;9.918;2023-03-07T10:27:10;14.00;;;10.65;;
25049;SDS011;13046;49.814;9.918;2023-03-07T10:34:44;15.40;;;10.07;;
25049;SDS011;13046;49.814;9.918;2023-03-07T10:37:12;13.93;;;9.48;;
25049;SDS011;13046;49.814;9.918;2023-03-07T10:39:43;13.88;;;9.30;;
25049;SDS011;13046;49.814;9.918;2023-03-07T10:42:16;11.88;;;8.50;;
25049;SDS011;13046;49.814;9.918;2023-03-07T10:44:45;12.35;;;9.70;;
25049;SDS011;13046;49.814;9.918;2023-03-07T10:47:16;13.27;;;9.25;;
25049;SDS011;13046;49.814;9.918;2023-03-07T10:49:51;13.75;;;9.52;;
25049;SDS011;13046;49.814;9.918;2023-03-07T11:00:58;15.90;;;9.15;;
25049;SDS011;13046;49.814;9.918;2023-03-07T11:03:51;11.75;;;8.75;;
25049;SDS011;13046;49.814;9.918;2023-03-07T11:06:31;14.15;;;9.73;;
25049;SDS011;13046;49.814;9.918;2023-03-07T11:11:51;14.65;;;9.98;;
25049;SDS011;13046;49.814;9.918;2023-03-07T11:14:17;15.35;;;9.50;;
25049;SDS011;13046;49.814;9.918;2023-03-07T11:19:32;14.25;;;9.70;;
25049;SDS011;13046;49.814;9.918;2023-03-07T11:22:03;8.45;;;7.60;;
25049;SDS011;13046;49.814;9.918;2023-03-07T11:24:41;11.80;;;8.88;;
25049;SDS011;13046;49.814;9.918;2023-03-07T11:27:21;11.15;;;8.95;;
25049;SDS011;13046;49.814;9.918;2023-03-07T11:32:44;12.52;;;8.98;;
25049;SDS011;13046;49.814;9.918;2023-03-07T11:41:34;11.43;;;8.15;;
25049;SDS011;13046;49.814;9.918;2023-03-07T11:58:00;12.38;;;9.18;;
25049;SDS011;13046;49.814;9.918;2023-03-07T12:00:34;10.88;;;7.57;;
25049;SDS011;13046;49.814;9.918;2023-03-07T12:07:20;11.75;;;8.43;;
25049;SDS011;13046;49.814;9.918;2023-03-07T12:15:24;11.38;;;9.50;;
25049;SDS011;13046;49.814;9.918;2023-03-07T12:24:16;14.73;;;8.77;;
25049;SDS011;13046;49.814;9.918;2023-03-07T12:31:46;11.90;;;8.95;;
25049;SDS011;13046;49.814;9.918;2023-03-07T12:34:59;12.73;;;7.32;;
25049;SDS011;13046;49.814;9.918;2023-03-07T12:37:12;12.75;;;9.23;;
25049;SDS011;13046;49.814;9.918;2023-03-07T12:39:52;16.50;;;9.05;;
25049;SDS011;13046;49.814;9.918;2023-03-07T12:45:23;11.60;;;8.38;;
25049;SDS011;13046;49.814;9.918;2023-03-07T12:50:32;12.00;;;9.40;;
25049;SDS011;13046;49.814;9.918;2023-03-07T12:56:02;12.93;;;9.20;;
25049;SDS011;13046;49.814;9.918;2023-03-07T12:58:41;10.93;;;7.40;;
25049;SDS011;13046;49.814;9.918;2023-03-07T13:01:16;12.82;;;8.65;;
25049;SDS011;13046;49.814;9.918;2023-03-07T13:06:27;14.23;;;9.10;;
25049;SDS011;13046;49.814;9.918;2023-03-07T13:08:59;11.35;;;8.65;;
25049;SDS011;13046;49.814;9.918;2023-03-07T13:11:28;12.85;;;9.30;;
25049;SDS011;13046;49.814;9.918;2023-03-07T13:13:56;16.95;;;11.13;;
25049;SDS011;13046;49.814;9.918;2023-03-07T13:22:54;13.80;;;8.70;;
25049;SDS011;13046;49.814;9.918;2023-03-07T13:24:49;15.90;;;9.45;;
25049;SDS011;13046;49.814;9.918;2023-03-07T13:27:19;15.32;;;9.02;;
25049;SDS011;13046;49.814;9.918;2023-03-07T13:30:00;16.77;;;11.88;;
25049;SDS011;13046;49.814;9.918;2023-03-07T13:38:00;14.27;;;10.02;;
25049;SDS011;13046;49.814;9.918;2023-03-07T13:40:47;14.82;;;9.63;;
25049;SDS011;13046;49.814;9.918;2023-03-07T13:46:26;10.93;;;9.57;;
25049;SDS011;13046;49.814;9.918;2023-03-07T13:51:20;15.43;;;9.73;;
25049;SDS011;13046;49.814;9.918;2023-03-07T13:53:53;12.75;;;9.90;;
25049;SDS011;13046;49.814;9.918;2023-03-07T13:56:24;13.52;;;10.60;;
25049;SDS011;13046;49.814;9.918;2023-03-07T13:59:16;13.63;;;9.80;;
25049;SDS011;13046;49.814;9.918;2023-03-07T14:01:51;12.95;;;9.40;;
25049;SDS011;13046;49.814;9.918;2023-03-07T14:04:23;15.95;;;11.13;;
25049;SDS011;13046;49.814;9.918;2023-03-07T14:09:42;15.82;;;10.98;;
25049;SDS011;13046;49.814;9.918;2023-03-07T14:20:31;15.93;;;10.88;;
25049;SDS011;13046;49.814;9.918;2023-03-07T14:23:46;19.73;;;12.48;;
25049;SDS011;13046;49.814;9.918;2023-03-07T14:25:53;15.82;;;10.23;;
25049;SDS011;13046;49.814;9.918;2023-03-07T14:28:33;15.10;;;10.10;;
25049;SDS011;13046;49.814;9.918;2023-03-07T14:31:00;17.08;;;10.73;;
25049;SDS011;13046;49.814;9.918;2023-03-07T14:33:30;27.30;;;11.50;;
25049;SDS011;13046;49.814;9.918;2023-03-07T14:36:01;14.27;;;10.50;;
25049;SDS011;13046;49.814;9.918;2023-03-07T14:38:29;14.60;;;10.85;;
25049;SDS011;13046;49.814;9.918;2023-03-07T14:46:21;13.00;;;10.03;;
25049;SDS011;13046;49.814;9.918;2023-03-07T14:52:03;14.80;;;10.40;;
25049;SDS011;13046;49.814;9.918;2023-03-07T14:54:30;12.93;;;9.77;;
25049;SDS011;13046;49.814;9.918;2023-03-07T14:56:57;15.50;;;10.85;;
25049;SDS011;13046;49.814;9.918;2023-03-07T14:59:24;14.48;;;10.15;;
25049;SDS011;13046;49.814;9.918;2023-03-07T15:01:50;15.20;;;11.00;;
25049;SDS011;13046;49.814;9.918;2023-03-07T15:04:20;16.02;;;11.40;;
25049;SDS011;13046;49.814;9.918;2023-03-07T15:06:58;14.70;;;10.95;;
25049;SDS011;13046;49.814;9.918;2023-03-07T15:09:25;21.50;;;10.77;;
25049;SDS011;13046;49.814;9.918;2023-03-07T15:11:54;14.45;;;10.43;;
25049;SDS011;13046;49.814;9.918;2023-03-07T15:14:38;18.83;;;11.32;;
25049;SDS011;13046;49.814;9.918;2023-03-07T15:17:10;15.38;;;9.65;;
25049;SDS011;13046;49.814;9.918;2023-03-07T15:22:22;14.82;;;9.80;;
25049;SDS011;13046;49.814;9.918;2023-03-07T15:24:51;15.25;;;11.25;;
25049;SDS011;13046;49.814;9.918;2023-03-07T15:27:30;14.70;;;9.70;;
25049;SDS011;13046;49.814;9.918;2023-03-07T15:29:56;14.60;;;10.13;;
25049;SDS011;13046;49.814;9.918;2023-03-07T15:37:32;15.80;;;10.10;;
25049;SDS011;13046;49.814;9.918;2023-03-07T15:45:28;18.92;;;11.68;;
25049;SDS011;13046;49.814;9.918;2023-03-07T15:47:54;17.92;;;12.90;;
25049;SDS011;13046;49.814;9.918;2023-03-07T15:50:23;17.92;;;10.75;;
25049;SDS011;13046;49.814;9.918;2023-03-07T15:52:51;15.50;;;10.18;;
25049;SDS011;13046;49.814;9.918;2023-03-07T15:55:19;17.65;;;10.90;;
25049;SDS011;13046;49.814;9.918;2023-03-07T15:57:49;16.52;;;10.98;;
25049;SDS011;13046;49.814;9.918;2023-03-07T16:03:12;14.85;;;10.63;;
25049;SDS011;13046;49.814;9.918;2023-03-07T16:05:51;15.43;;;10.80;;
25049;SDS011;13046;49.814;9.918;2023-03-07T16:08:19;16.02;;;11.43;;
25049;SDS011;13046;49.814;9.918;2023-03-07T16:10:47;18.67;;;11.95;;
25049;SDS011;13046;49.814;9.918;2023-03-07T16:13:18;16.33;;;11.43;;
25049;SDS011;13046;49.814;9.918;2023-03-07T16:15:56;15.02;;;10.90;;
25049;SDS011;13046;49.814;9.918;2023-03-07T16:18:23;13.20;;;9.43;;
25049;SDS011;13046;49.814;9.918;2023-03-07T16:20:52;17.73;;;10.20;;
25049;SDS011;13046;49.814;9.918;2023-03-07T16:23:18;14.80;;;9.70;;
25049;SDS011;13046;49.814;9.918;2023-03-07T16:25:44;16.30;;;10.82;;
25049;SDS011;13046;49.814;9.918;2023-03-07T16:28:10;15.48;;;9.95;;
25049;SDS011;13046;49.814;9.918;2023-03-07T16:30:36;17.27;;;9.98;;
25049;SDS011;13046;49.814;9.918;2023-03-07T16:33:04;16.65;;;10.88;;
25049;SDS011;13046;49.814;9.918;2023-03-07T16:35:30;60.95;;;39.35;;
25049;SDS011;13046;49.814;9.918;2023-03-07T16:37:56;80.28;;;65.78;;
25049;SDS011;13046;49.814;9.918;2023-03-07T16:40:22;15.23;;;11.25;;
25049;SDS011;13046;49.814;9.918;2023-03-07T16:42:49;15.77;;;12.32;;
25049;SDS011;13046;49.814;9.918;2023-03-07T16:47:45;15.05;;;9.73;;
25049;SDS011;13046;49.814;9.918;2023-03-07T16:50:14;20.45;;;12.13;;
25049;SDS011;13046;49.814;9.918;2023-03-07T16:52:40;12.07;;;9.85;;
25049;SDS011;13046;49.814;9.918;2023-03-07T16:55:07;18.73;;;11.27;;
25049;SDS011;13046;49.814;9.918;2023-03-07T16:57:33;18.42;;;10.30;;
25049;SDS011;13046;49.814;9.918;2023-03-07T17:00:00;15.50;;;10.23;;
25049;SDS011;13046;49.814;9.918;2023-03-07T17:02:26;16.58;;;9.80;;